Glade Hill, Virginia
Current Conditions -  °F | °C
As of 1:54 AM on Wednesday 22 Oct 2014 (Local Time) from KROA Reporting Station
Overcast Overcast  
Wind Chill: 50°   Ceiling: 3400
Heat Index: 50°   Visibility: 10mi
Dew Point: 38°   Wind: 10mph
Humidity: 63%   Direction: 310°NW
Pressure: 30"   Gusts: NA
Location:  37.0073°N, 79.7681°W
Report Text: KROA 220554Z 31009KT 10SM OVC034 10/03 A3000 RMK AO2 SLP155 60000 T01000033 10117 20100 56003
Loading
Personal Weather Stations






























Interactive Weather Map
Tropical Storm Tracking
New forecast layout! Learn more

10-Day Weather Forecast

Advertisements
Track Severe Weather on mobile